createdAt,value
2023-03-17T00:01:10.126Z,3.17
2023-03-17T00:03:40.897Z,3.70
2023-03-17T00:06:16.180Z,3.42
2023-03-17T00:08:43.992Z,3.33
2023-03-17T00:11:17.231Z,4.18
2023-03-17T00:13:44.831Z,3.75
2023-03-17T00:16:25.521Z,3.65
2023-03-17T00:18:53.904Z,3.70
2023-03-17T00:21:35.641Z,4.07
2023-03-17T00:24:02.310Z,3.60
2023-03-17T00:26:29.329Z,3.78
2023-03-17T00:28:56.147Z,4.63
2023-03-17T00:31:26.193Z,3.92
2023-03-17T00:33:54.682Z,4.40
2023-03-17T00:36:28.144Z,3.85
2023-03-17T00:38:55.738Z,3.92
2023-03-17T00:41:23.617Z,4.10
2023-03-17T00:43:50.854Z,4.03
2023-03-17T00:46:31.140Z,4.65
2023-03-17T00:48:57.991Z,4.40
2023-03-17T00:51:24.629Z,4.20
2023-03-17T00:53:51.748Z,4.40
2023-03-17T00:56:20.884Z,4.75
2023-03-17T00:58:48.468Z,4.97
2023-03-17T01:01:15.925Z,4.63
2023-03-17T01:03:42.757Z,4.55
2023-03-17T01:06:12.477Z,4.30
2023-03-17T01:08:40.906Z,5.10
2023-03-17T01:11:14.797Z,4.88
2023-03-17T01:13:41.659Z,4.90
2023-03-17T01:16:12.369Z,4.90
2023-03-17T01:18:39.945Z,4.90
2023-03-17T01:21:07.814Z,4.43
2023-03-17T01:23:34.578Z,6.00
2023-03-17T01:26:01.706Z,5.60
2023-03-17T01:28:28.413Z,4.72
2023-03-17T01:30:55.712Z,4.72
2023-03-17T01:33:22.394Z,5.50
2023-03-17T01:35:50.763Z,5.50
2023-03-17T01:38:18.315Z,4.55
2023-03-17T01:40:50.757Z,5.40
2023-03-17T01:43:29.602Z,5.55
2023-03-17T01:46:22.625Z,4.68
2023-03-17T01:49:16.245Z,5.22
2023-03-17T01:51:46.695Z,5.80
2023-03-17T01:54:22.219Z,5.65
2023-03-17T01:56:52.203Z,5.70
2023-03-17T01:59:23.759Z,5.70
2023-03-17T02:01:54.481Z,5.47
2023-03-17T02:04:22.036Z,6.18
2023-03-17T02:06:58.125Z,5.95
2023-03-17T02:09:26.896Z,5.80
2023-03-17T02:11:54.502Z,5.45
2023-03-17T02:14:21.475Z,5.35
2023-03-17T02:16:48.576Z,5.53
2023-03-17T02:19:15.358Z,4.72
2023-03-17T02:21:46.014Z,5.50
2023-03-17T02:24:22.626Z,5.53
2023-03-17T02:26:51.254Z,5.78
2023-03-17T02:29:20.493Z,5.80
2023-03-17T02:31:47.362Z,5.87
2023-03-17T02:34:14.302Z,5.32
2023-03-17T02:36:41.317Z,5.45
2023-03-17T02:39:08.274Z,5.80
2023-03-17T02:41:35.634Z,5.30
2023-03-17T02:44:02.522Z,4.95
2023-03-17T02:46:29.272Z,4.80
2023-03-17T02:48:56.268Z,5.38
2023-03-17T02:51:23.023Z,5.43
2023-03-17T02:53:49.960Z,5.93
2023-03-17T02:56:16.778Z,5.47
2023-03-17T02:58:43.548Z,5.20
2023-03-17T03:01:10.756Z,5.35
2023-03-17T03:03:37.512Z,4.80
2023-03-17T03:06:04.468Z,5.30
2023-03-17T03:08:31.077Z,4.82
2023-03-17T03:10:57.792Z,5.68
2023-03-17T03:13:24.453Z,5.38
2023-03-17T03:15:51.200Z,4.75
2023-03-17T03:18:18.258Z,5.60
2023-03-17T03:20:46.282Z,4.88
2023-03-17T03:23:14.154Z,5.38
2023-03-17T03:25:40.829Z,5.60
2023-03-17T03:28:08.513Z,5.63
2023-03-17T03:30:37.204Z,5.30
2023-03-17T03:33:04.671Z,5.50
2023-03-17T03:35:31.608Z,4.68
2023-03-17T03:37:58.575Z,6.03
2023-03-17T03:40:25.733Z,5.75
2023-03-17T03:42:52.590Z,5.20
2023-03-17T03:45:19.321Z,6.03
2023-03-17T03:47:46.036Z,5.53
2023-03-17T03:50:13.253Z,4.93
2023-03-17T03:52:40.913Z,4.95
2023-03-17T03:55:08.051Z,4.97
2023-03-17T03:57:35.346Z,4.72
2023-03-17T04:00:02.994Z,5.40
2023-03-17T04:02:30.866Z,5.15
2023-03-17T04:04:57.849Z,4.95
2023-03-17T04:07:24.865Z,5.53
2023-03-17T04:09:51.773Z,5.22
2023-03-17T04:12:18.788Z,4.97
2023-03-17T04:14:45.731Z,4.95
2023-03-17T04:17:12.979Z,5.55
2023-03-17T04:19:40.475Z,5.28
2023-03-17T04:22:09.053Z,5.30
2023-03-17T04:24:35.768Z,5.32
2023-03-17T04:27:03.696Z,5.68
2023-03-17T04:29:32.223Z,5.35
2023-03-17T04:31:59.050Z,5.25
2023-03-17T04:34:27.277Z,5.50
2023-03-17T04:36:54.125Z,5.05
2023-03-17T04:39:20.917Z,5.13
2023-03-17T04:41:47.584Z,5.55
2023-03-17T04:44:14.371Z,4.72
2023-03-17T04:46:41.052Z,4.55
2023-03-17T04:49:08.430Z,5.47
2023-03-17T04:51:36.919Z,4.60
2023-03-17T04:54:04.039Z,4.93
2023-03-17T04:56:31.940Z,4.82
2023-03-17T04:58:58.765Z,5.18
2023-03-17T05:01:25.526Z,5.45
2023-03-17T05:03:52.701Z,4.63
2023-03-17T05:06:19.378Z,4.95
2023-03-17T05:08:46.157Z,5.10
2023-03-17T05:11:13.285Z,4.80
2023-03-17T05:13:43.000Z,5.30
2023-03-17T05:16:10.545Z,4.68
2023-03-17T05:18:38.274Z,5.40
2023-03-17T05:21:06.317Z,4.53
2023-03-17T05:23:33.815Z,4.63
2023-03-17T05:26:00.631Z,5.50
2023-03-17T05:28:27.641Z,5.28
2023-03-17T05:30:54.891Z,4.90
2023-03-17T05:33:21.916Z,5.40
2023-03-17T05:35:48.982Z,5.35
2023-03-17T05:38:18.786Z,5.07
2023-03-17T05:40:45.790Z,5.28
2023-03-17T05:43:12.505Z,5.55
2023-03-17T05:45:39.279Z,5.00
2023-03-17T05:48:06.298Z,4.95
2023-03-17T05:50:33.296Z,5.43
2023-03-17T05:52:59.986Z,5.30
2023-03-17T05:55:26.764Z,5.05
2023-03-17T05:57:53.729Z,5.88
2023-03-17T06:00:21.554Z,4.80
2023-03-17T06:02:48.454Z,5.57
2023-03-17T06:05:15.239Z,5.38
2023-03-17T06:07:53.120Z,6.10
2023-03-17T06:10:23.309Z,4.88
2023-03-17T06:12:49.949Z,5.18
2023-03-17T06:15:17.304Z,5.40
2023-03-17T06:17:44.085Z,4.75
2023-03-17T06:20:11.763Z,5.95
2023-03-17T06:22:42.342Z,4.80
2023-03-17T06:25:15.677Z,5.40
2023-03-17T06:27:42.768Z,5.70
2023-03-17T06:30:10.332Z,4.97
2023-03-17T06:32:37.874Z,5.13
2023-03-17T06:35:05.495Z,5.00
2023-03-17T06:37:32.147Z,5.25
2023-03-17T06:40:00.824Z,5.20
2023-03-17T06:42:28.214Z,5.68
2023-03-17T06:44:55.610Z,5.57
2023-03-17T06:47:24.792Z,5.45
2023-03-17T06:52:20.286Z,5.07
2023-03-17T06:54:47.539Z,6.05
2023-03-17T06:57:14.554Z,4.85
2023-03-17T06:59:41.663Z,4.60
2023-03-17T07:02:10.586Z,5.18
2023-03-17T07:04:38.275Z,5.03
2023-03-17T07:07:05.709Z,5.63
2023-03-17T07:09:36.258Z,5.63
2023-03-17T07:12:06.077Z,5.07
2023-03-17T07:14:36.781Z,5.32
2023-03-17T07:17:04.898Z,4.85
2023-03-17T07:19:31.932Z,5.68
2023-03-17T07:21:58.917Z,5.38
2023-03-17T07:24:26.622Z,5.80
2023-03-17T07:26:53.438Z,6.18
2023-03-17T07:29:21.336Z,4.93
2023-03-17T07:31:48.335Z,5.22
2023-03-17T07:34:16.429Z,5.40
2023-03-17T07:36:43.223Z,5.00
2023-03-17T07:39:11.998Z,4.75
2023-03-17T07:41:38.991Z,4.38
2023-03-17T07:44:05.611Z,4.75
2023-03-17T07:46:32.420Z,4.65
2023-03-17T07:48:59.219Z,4.88
2023-03-17T07:51:27.990Z,4.55
2023-03-17T07:54:03.268Z,5.13
2023-03-17T07:56:31.257Z,5.35
2023-03-17T07:58:59.033Z,4.43
2023-03-17T08:01:27.770Z,4.07
2023-03-17T08:03:55.109Z,4.38
2023-03-17T08:06:22.136Z,4.78
2023-03-17T08:08:48.801Z,4.97
2023-03-17T08:11:15.803Z,4.68
2023-03-17T08:13:42.763Z,4.30
2023-03-17T08:16:09.687Z,4.05
2023-03-17T08:18:36.898Z,4.45
2023-03-17T08:21:04.472Z,3.97
2023-03-17T08:23:31.393Z,4.47
2023-03-17T08:25:59.150Z,3.90
2023-03-17T08:28:26.013Z,3.97
2023-03-17T08:30:53.056Z,4.82
2023-03-17T08:33:20.876Z,4.82
2023-03-17T08:35:48.153Z,4.10
2023-03-17T08:38:14.831Z,4.22
2023-03-17T08:40:42.715Z,4.07
2023-03-17T08:43:09.324Z,3.58
2023-03-17T08:45:35.984Z,4.10
2023-03-17T08:48:03.313Z,4.60
2023-03-17T08:50:30.992Z,3.75
2023-03-17T08:52:57.905Z,3.95
2023-03-17T08:55:24.995Z,4.20
2023-03-17T08:57:51.726Z,4.22
2023-03-17T09:00:20.485Z,3.72
2023-03-17T09:02:48.642Z,3.65
2023-03-17T09:05:17.031Z,3.75
2023-03-17T09:07:44.162Z,4.00
2023-03-17T09:10:12.449Z,3.83
2023-03-17T09:12:39.430Z,3.53
2023-03-17T09:15:07.858Z,3.85
2023-03-17T09:17:34.728Z,3.78
2023-03-17T09:20:01.397Z,3.90
2023-03-17T09:22:28.101Z,3.67
2023-03-17T09:24:54.779Z,3.92
2023-03-17T09:27:21.568Z,3.58
2023-03-17T09:29:48.360Z,3.50
2023-03-17T09:32:15.905Z,3.53
2023-03-17T09:34:42.943Z,3.65
2023-03-17T09:37:09.809Z,4.05
2023-03-17T09:39:36.655Z,3.35
2023-03-17T09:42:15.020Z,3.47
2023-03-17T09:44:44.563Z,3.33
2023-03-17T09:47:37.221Z,2.97
2023-03-17T09:50:15.968Z,3.70
2023-03-17T09:52:43.136Z,3.65
2023-03-17T09:55:22.575Z,3.22
2023-03-17T09:57:52.228Z,3.63
2023-03-17T10:00:23.310Z,3.35
2023-03-17T10:02:49.933Z,3.30
2023-03-17T10:05:22.460Z,2.92
2023-03-17T10:08:27.333Z,3.80
2023-03-17T10:11:24.238Z,3.20
2023-03-17T10:14:03.245Z,3.45
2023-03-17T10:16:39.687Z,3.08
2023-03-17T10:19:23.845Z,2.88
2023-03-17T10:21:58.828Z,3.00
2023-03-17T10:24:26.835Z,3.10
2023-03-17T10:26:57.833Z,2.65
2023-03-17T10:29:24.774Z,2.72
2023-03-17T10:31:53.334Z,2.97
2023-03-17T10:34:25.614Z,2.83
2023-03-17T10:37:05.640Z,2.67
2023-03-17T10:39:41.578Z,2.58
2023-03-17T10:42:11.697Z,3.10
2023-03-17T10:44:53.668Z,2.80
2023-03-17T10:47:32.563Z,2.70
2023-03-17T10:50:24.704Z,3.00
2023-03-17T10:53:06.008Z,2.70
2023-03-17T10:55:38.499Z,2.65
2023-03-17T10:58:15.821Z,2.70
2023-03-17T11:01:03.216Z,2.50
2023-03-17T11:03:37.333Z,2.67
2023-03-17T11:06:11.523Z,2.97
2023-03-17T11:08:49.642Z,3.05
2023-03-17T11:11:26.317Z,2.65
2023-03-17T11:14:11.688Z,2.83
2023-03-17T11:16:42.238Z,2.88
2023-03-17T11:19:16.264Z,2.95
2023-03-17T11:22:00.130Z,2.85
2023-03-17T11:24:33.509Z,2.78
2023-03-17T11:27:21.592Z,2.45
2023-03-17T11:30:10.381Z,3.10
2023-03-17T11:32:50.901Z,2.47
2023-03-17T11:35:36.136Z,2.75
2023-03-17T11:38:29.991Z,2.30
2023-03-17T11:41:13.976Z,2.50
2023-03-17T11:44:05.610Z,2.65
2023-03-17T11:46:58.960Z,3.15
2023-03-17T11:49:37.756Z,2.40
2023-03-17T11:52:40.988Z,2.83
2023-03-17T11:55:23.216Z,2.53
2023-03-17T11:58:03.987Z,2.63
2023-03-17T12:00:34.837Z,2.55
2023-03-17T12:03:18.800Z,2.47
2023-03-17T12:05:50.980Z,2.55
2023-03-17T12:08:24.556Z,2.17
2023-03-17T12:10:55.763Z,2.75
2023-03-17T12:13:29.282Z,2.28
2023-03-17T12:16:11.324Z,2.42
2023-03-17T12:18:43.132Z,2.38
2023-03-17T12:21:36.598Z,2.30
2023-03-17T12:24:18.493Z,2.63
2023-03-17T12:26:54.267Z,2.28
2023-03-17T12:29:41.049Z,2.38
2023-03-17T12:32:21.725Z,2.13
2023-03-17T12:34:57.607Z,2.03
2023-03-17T12:37:27.658Z,2.60
2023-03-17T12:40:00.808Z,2.22
2023-03-17T12:42:47.188Z,2.13
2023-03-17T12:45:47.031Z,2.05
2023-03-17T12:48:41.523Z,2.22
2023-03-17T12:51:38.415Z,2.45
2023-03-17T12:54:11.751Z,1.95
2023-03-17T12:56:45.766Z,2.35
2023-03-17T12:59:24.947Z,2.17
2023-03-17T13:02:15.525Z,2.38
2023-03-17T13:04:57.829Z,2.42
2023-03-17T13:07:27.211Z,2.10
2023-03-17T13:09:53.792Z,1.90
2023-03-17T13:12:57.040Z,2.03
2023-03-17T13:15:36.061Z,2.22
2023-03-17T13:18:15.360Z,1.98
2023-03-17T13:20:57.516Z,2.38
2023-03-17T13:23:47.986Z,1.88
2023-03-17T13:26:19.540Z,2.28
2023-03-17T13:28:51.018Z,2.72
2023-03-17T13:31:33.907Z,1.90
2023-03-17T13:34:15.480Z,2.40
2023-03-17T13:36:59.248Z,2.35
2023-03-17T13:39:34.340Z,2.25
2023-03-17T13:42:19.257Z,2.05
2023-03-17T13:45:23.266Z,1.90
2023-03-17T13:47:51.207Z,2.08
2023-03-17T13:50:30.919Z,2.05
2023-03-17T13:53:10.371Z,2.22
2023-03-17T13:55:38.801Z,2.33
2023-03-17T13:58:11.080Z,2.10
2023-03-17T14:00:55.340Z,2.38
2023-03-17T14:03:40.078Z,2.03
2023-03-17T14:06:08.883Z,2.30
2023-03-17T14:08:37.238Z,2.13
2023-03-17T14:11:09.029Z,1.83
2023-03-17T14:14:07.692Z,2.08
2023-03-17T14:16:42.420Z,1.80
2023-03-17T14:19:21.822Z,1.92
2023-03-17T14:21:48.467Z,1.97
2023-03-17T14:24:31.353Z,1.92
2023-03-17T14:26:58.258Z,1.95
2023-03-17T14:29:32.174Z,1.73
2023-03-17T14:32:13.862Z,2.10
2023-03-17T14:34:56.389Z,1.85
2023-03-17T14:37:24.251Z,2.50
2023-03-17T14:39:53.758Z,2.25
2023-03-17T14:42:26.770Z,1.83
2023-03-17T14:45:01.810Z,1.83
2023-03-17T14:47:30.377Z,2.17
2023-03-17T14:49:57.100Z,1.88
2023-03-17T14:52:29.279Z,2.00
2023-03-17T14:54:59.160Z,2.38
2023-03-17T14:57:33.014Z,1.92
2023-03-17T15:00:26.244Z,1.95
2023-03-17T15:02:57.711Z,1.90
2023-03-17T15:05:42.242Z,2.42
2023-03-17T15:08:28.434Z,2.30
2023-03-17T15:11:01.931Z,1.63
2023-03-17T15:13:33.030Z,1.85
2023-03-17T15:16:04.797Z,2.47
2023-03-17T15:18:31.509Z,2.70
2023-03-17T15:20:59.549Z,2.45
2023-03-17T15:23:29.110Z,2.63
2023-03-17T15:25:56.846Z,2.17
2023-03-17T15:28:28.342Z,1.80
2023-03-17T15:31:05.306Z,2.95
2023-03-17T15:33:36.953Z,2.03
2023-03-17T15:36:04.686Z,2.05
2023-03-17T15:38:32.256Z,1.80
2023-03-17T15:40:59.172Z,2.40
2023-03-17T15:43:25.872Z,2.00
2023-03-17T15:46:01.411Z,2.72
2023-03-17T15:48:31.492Z,2.08
2023-03-17T15:51:00.144Z,2.30
2023-03-17T15:53:26.939Z,2.38
2023-03-17T15:55:53.653Z,2.60
2023-03-17T15:58:20.502Z,2.50
2023-03-17T16:00:54.664Z,2.63
2023-03-17T16:03:31.428Z,2.25
2023-03-17T16:05:59.693Z,2.60
2023-03-17T16:08:26.460Z,2.30
2023-03-17T16:10:53.130Z,2.42
2023-03-17T16:13:20.398Z,2.45
2023-03-17T16:15:55.430Z,2.22
2023-03-17T16:18:37.644Z,2.70
2023-03-17T16:21:07.852Z,2.63
2023-03-17T16:26:14.421Z,2.23
2023-03-17T16:28:44.457Z,2.80
2023-03-17T16:31:18.454Z,2.83
2023-03-17T16:33:45.423Z,2.58
2023-03-17T16:36:18.024Z,2.50
2023-03-17T16:38:45.480Z,3.45
2023-03-17T16:41:23.329Z,3.00
2023-03-17T16:43:53.618Z,2.80
2023-03-17T16:48:49.601Z,3.03
2023-03-17T16:51:16.760Z,2.80
2023-03-17T16:53:43.905Z,2.53
2023-03-17T16:56:16.041Z,2.88
2023-03-17T16:58:43.305Z,2.85
2023-03-17T17:01:16.917Z,2.53
2023-03-17T17:03:43.888Z,2.63
2023-03-17T17:06:12.141Z,3.17
2023-03-17T17:08:38.891Z,3.60
2023-03-17T17:11:06.374Z,2.67
2023-03-17T17:13:33.230Z,3.08
2023-03-17T17:16:00.916Z,3.55
2023-03-17T17:18:27.734Z,2.95
2023-03-17T17:20:54.904Z,3.03
2023-03-17T17:23:24.484Z,2.63
2023-03-17T17:25:52.141Z,3.15
2023-03-17T17:28:22.334Z,2.50
2023-03-17T17:33:18.020Z,3.17
2023-03-17T17:35:45.862Z,3.10
2023-03-17T17:38:28.401Z,3.20
2023-03-17T17:40:57.322Z,3.25
2023-03-17T17:43:24.990Z,3.20
2023-03-17T17:45:52.843Z,3.42
2023-03-17T17:48:24.771Z,2.75
2023-03-17T17:50:52.632Z,2.75
2023-03-17T17:53:19.416Z,3.10
2023-03-17T17:55:47.580Z,3.47
2023-03-17T17:58:17.107Z,3.17
2023-03-17T18:00:43.892Z,3.15
2023-03-17T18:03:10.965Z,3.17
2023-03-17T18:05:37.717Z,3.80
2023-03-17T18:08:05.614Z,3.20
2023-03-17T18:10:33.316Z,3.95
2023-03-17T18:13:00.407Z,3.28
2023-03-17T18:15:28.319Z,3.60
2023-03-17T18:17:55.971Z,4.20
2023-03-17T18:20:23.995Z,3.75
2023-03-17T18:22:51.562Z,3.60
2023-03-17T18:25:19.503Z,3.30
2023-03-17T18:27:47.240Z,3.97
2023-03-17T18:30:21.230Z,3.80
2023-03-17T18:32:49.788Z,4.05
2023-03-17T18:35:19.938Z,4.18
2023-03-17T18:37:47.144Z,3.80
2023-03-17T18:40:18.166Z,3.92
2023-03-17T18:42:45.982Z,3.70
2023-03-17T18:45:13.701Z,3.88
2023-03-17T18:47:41.908Z,4.63
2023-03-17T18:50:11.752Z,3.90
2023-03-17T18:52:41.016Z,5.07
2023-03-17T18:55:09.162Z,3.73
2023-03-17T18:57:35.922Z,4.70
2023-03-17T19:00:02.669Z,4.30
2023-03-17T19:02:29.311Z,4.60
2023-03-17T19:04:56.026Z,4.30
2023-03-17T19:07:22.904Z,4.10
2023-03-17T19:09:49.735Z,4.00
2023-03-17T19:12:16.348Z,4.18
2023-03-17T19:14:43.084Z,4.28
2023-03-17T19:17:10.361Z,3.88
2023-03-17T19:19:37.464Z,4.22
2023-03-17T19:22:06.182Z,3.88
2023-03-17T19:24:35.465Z,4.72
2023-03-17T19:27:02.285Z,4.47
2023-03-17T19:29:28.947Z,4.07
2023-03-17T19:31:55.858Z,4.55
2023-03-17T19:34:23.302Z,4.35
2023-03-17T19:36:51.200Z,4.35
2023-03-17T19:39:18.217Z,4.03
2023-03-17T19:41:45.053Z,4.07
2023-03-17T19:44:11.670Z,4.13
2023-03-17T19:46:38.587Z,4.35
2023-03-17T19:49:05.566Z,4.25
2023-03-17T19:51:33.138Z,4.70
2023-03-17T19:54:00.218Z,4.50
2023-03-17T19:56:27.817Z,3.90
2023-03-17T19:58:55.411Z,4.22
2023-03-17T20:01:23.052Z,4.55
2023-03-17T20:03:49.952Z,4.38
2023-03-17T20:06:16.828Z,9.55
2023-03-17T20:08:44.524Z,5.00
2023-03-17T20:11:12.349Z,5.10
2023-03-17T20:13:39.316Z,4.03
2023-03-17T20:16:07.706Z,4.63
2023-03-17T20:18:34.708Z,3.92
2023-03-17T20:21:05.586Z,4.93
2023-03-17T20:23:32.812Z,4.80
2023-03-17T20:25:59.509Z,4.28
2023-03-17T20:28:27.709Z,4.82
2023-03-17T20:30:59.794Z,5.00
2023-03-17T20:33:26.691Z,5.20
2023-03-17T20:35:53.479Z,4.60
2023-03-17T20:38:20.457Z,4.03
2023-03-17T20:40:47.319Z,5.03
2023-03-17T20:43:14.252Z,5.15
2023-03-17T20:45:41.158Z,4.95
2023-03-17T20:48:10.634Z,5.25
2023-03-17T20:50:39.040Z,5.28
2023-03-17T20:53:05.997Z,4.22
2023-03-17T20:55:32.914Z,4.88
2023-03-17T20:57:59.798Z,5.40
2023-03-17T21:00:26.788Z,6.10
2023-03-17T21:02:53.683Z,4.88
2023-03-17T21:05:24.687Z,5.53
2023-03-17T21:07:51.819Z,5.78
2023-03-17T21:10:19.226Z,6.50
2023-03-17T21:12:46.393Z,5.28
2023-03-17T21:15:14.677Z,5.40
2023-03-17T21:17:42.450Z,4.88
2023-03-17T21:20:11.930Z,5.28
2023-03-17T21:22:39.988Z,4.68
2023-03-17T21:25:08.793Z,5.10
2023-03-17T21:27:37.717Z,4.60
2023-03-17T21:30:08.949Z,4.97
2023-03-17T21:32:36.123Z,5.55
2023-03-17T21:35:03.256Z,4.88
2023-03-17T21:37:29.981Z,5.03
2023-03-17T21:39:56.758Z,4.95
2023-03-17T21:42:24.788Z,5.35
2023-03-17T21:44:52.350Z,5.97
2023-03-17T21:47:19.644Z,5.30
2023-03-17T21:49:46.986Z,5.07
2023-03-17T21:52:14.999Z,5.85
2023-03-17T21:54:42.309Z,5.88
2023-03-17T21:57:12.137Z,5.25
2023-03-17T21:59:40.120Z,4.78
2023-03-17T22:02:06.865Z,5.25
2023-03-17T22:04:33.517Z,5.38
2023-03-17T22:07:00.268Z,5.13
2023-03-17T22:09:26.930Z,5.50
2023-03-17T22:11:53.643Z,5.75
2023-03-17T22:14:20.865Z,5.15
2023-03-17T22:16:50.864Z,4.93
2023-03-17T22:19:20.616Z,4.93
2023-03-17T22:24:14.821Z,5.35
2023-03-17T22:26:42.143Z,5.32
2023-03-17T22:29:09.169Z,5.45
2023-03-17T22:31:36.430Z,5.22
2023-03-17T22:34:04.239Z,5.03
2023-03-17T22:36:32.076Z,5.50
2023-03-17T22:38:59.224Z,4.95
2023-03-17T22:41:29.084Z,5.05
2023-03-17T22:43:56.853Z,5.63
2023-03-17T22:46:24.040Z,5.70
2023-03-17T22:48:51.760Z,5.30
2023-03-17T22:51:21.467Z,5.40
2023-03-17T22:53:49.522Z,5.72
2023-03-17T22:56:17.574Z,5.32
2023-03-17T22:58:45.767Z,5.30
2023-03-17T23:01:13.946Z,5.07
2023-03-17T23:03:41.855Z,5.28
2023-03-17T23:06:09.766Z,4.93
2023-03-17T23:08:38.952Z,5.30
2023-03-17T23:11:08.757Z,4.95
2023-03-17T23:13:36.075Z,6.22
2023-03-17T23:16:04.583Z,5.32
2023-03-17T23:18:31.369Z,5.25
2023-03-17T23:20:58.839Z,5.65
2023-03-17T23:23:25.543Z,5.13
2023-03-17T23:25:52.738Z,5.65
2023-03-17T23:28:19.536Z,4.28
2023-03-17T23:30:47.333Z,5.00
2023-03-17T23:33:20.065Z,5.30
2023-03-17T23:35:47.283Z,5.38
2023-03-17T23:38:14.197Z,5.35
2023-03-17T23:40:41.241Z,5.18
2023-03-17T23:43:08.054Z,5.63
2023-03-17T23:45:35.126Z,5.10
2023-03-17T23:48:02.946Z,5.38
2023-03-17T23:50:29.912Z,4.82
2023-03-17T23:52:56.979Z,5.15
2023-03-17T23:55:24.329Z,5.25
2023-03-17T23:57:51.506Z,4.40
